Time;durP1;ratioP1;P1;durP2;ratioP2;P2;SDS_P1;SDS_P2;PMS_P1;PMS_P2;Temp;Humidity;BMP_temperature;BMP_pressure;BME280_temperature;BME280_humidity;BME280_pressure;Samples;Min_cycle;Max_cycle;Signal;HPM_P1;HPM_P2
2023/03/23 00:02:35;;;;;;;6.27;2.30;;;12.00;99.90;;;;;;5090912;28;20051;-52
2023/03/23 00:05:08;;;;;;;5.33;2.10;;;12.00;99.90;;;;;;5090838;28;20081;-51
2023/03/23 00:07:34;;;;;;;7.57;2.67;;;12.10;99.90;;;;;;5090662;28;20036;-52
2023/03/23 00:10:02;;;;;;;4.50;2.20;;;12.10;99.90;;;;;;5090787;28;20036;-50
2023/03/23 00:12:33;;;;;;;3.60;1.90;;;12.10;99.90;;;;;;5090641;28;20089;-53
2023/03/23 00:15:12;;;;;;;6.57;2.20;;;12.20;99.90;;;;;;5090561;28;20518;-50
2023/03/23 00:17:40;;;;;;;10.18;2.53;;;12.20;99.90;;;;;;5090637;28;20032;-51
2023/03/23 00:20:07;;;;;;;4.97;2.00;;;12.30;99.90;;;;;;5090733;28;20032;-52
2023/03/23 00:22:37;;;;;;;5.67;2.10;;;12.30;99.90;;;;;;5090486;28;20078;-49
2023/03/23 00:25:05;;;;;;;4.00;1.97;;;12.30;99.90;;;;;;5090157;28;20066;-51
2023/03/23 00:27:30;;;;;;;4.03;2.00;;;12.40;99.90;;;;;;5090316;28;20115;-52
2023/03/23 00:29:56;;;;;;;4.80;2.00;;;12.30;99.90;;;;;;5090474;28;20055;-53
2023/03/23 00:32:29;;;;;;;6.83;2.30;;;12.30;99.90;;;;;;5090563;28;20028;-52
2023/03/23 00:34:58;;;;;;;5.03;1.90;;;12.30;99.90;;;;;;5090273;28;20020;-51
2023/03/23 00:37:25;;;;;;;7.70;2.10;;;12.40;99.90;;;;;;5094162;28;20385;-50
2023/03/23 00:39:51;;;;;;;4.40;1.90;;;12.40;99.90;;;;;;5094237;28;20543;-52
2023/03/23 00:42:18;;;;;;;4.53;2.13;;;12.50;99.90;;;;;;5076126;28;20392;-54
2023/03/23 00:44:43;;;;;;;5.30;1.80;;;12.50;99.90;;;;;;5094207;28;20047;-51
2023/03/23 00:47:11;;;;;;;5.47;2.30;;;12.50;99.90;;;;;;5094143;28;20028;-52
2023/03/23 00:49:38;;;;;;;5.23;2.13;;;12.40;99.90;;;;;;5094251;28;20411;-54
2023/03/23 00:52:06;;;;;;;5.90;2.20;;;12.40;99.90;;;;;;5102610;22;20566;-53
2023/03/23 00:54:33;;;;;;;7.03;2.27;;;12.40;99.90;;;;;;5073680;28;20025;-45
2023/03/23 00:56:59;;;;;;;5.40;2.67;;;12.40;99.90;;;;;;5055731;28;20024;-49
2023/03/23 00:59:25;;;;;;;5.13;2.10;;;12.50;99.90;;;;;;5073940;28;20409;-47
2023/03/23 01:01:50;;;;;;;6.27;2.27;;;12.50;99.90;;;;;;5073748;28;20500;-47
2023/03/23 01:04:16;;;;;;;5.20;2.53;;;12.50;99.90;;;;;;5073504;28;20055;-46
2023/03/23 01:06:44;;;;;;;4.63;2.10;;;12.40;99.90;;;;;;5073422;28;20028;-45
2023/03/23 01:09:16;;;;;;;5.35;2.47;;;12.40;99.90;;;;;;5073717;28;20029;-46
2023/03/23 01:11:46;;;;;;;4.03;1.90;;;12.50;99.90;;;;;;5055494;28;20120;-49
2023/03/23 01:14:15;;;;;;;5.60;2.30;;;12.40;99.90;;;;;;5073243;28;20563;-48
2023/03/23 01:16:41;;;;;;;8.02;2.22;;;12.50;99.90;;;;;;5073236;28;20028;-48
2023/03/23 01:19:07;;;;;;;3.78;2.05;;;12.40;99.90;;;;;;5055701;28;20032;-47
2023/03/23 01:21:33;;;;;;;5.80;2.30;;;12.50;99.90;;;;;;5055341;28;20020;-46
2023/03/23 01:23:58;;;;;;;5.13;2.28;;;12.50;99.90;;;;;;5073185;28;20373;-47
2023/03/23 01:26:27;;;;;;;5.50;2.03;;;12.60;99.90;;;;;;5055242;28;20036;-46
2023/03/23 01:28:53;;;;;;;7.53;2.70;;;12.60;99.90;;;;;;5055151;28;20485;-48
2023/03/23 01:31:22;;;;;;;3.57;2.00;;;12.60;99.90;;;;;;5073518;28;20365;-49
2023/03/23 01:33:50;;;;;;;4.30;2.00;;;12.70;99.90;;;;;;5055029;28;20078;-49
2023/03/23 01:36:20;;;;;;;4.90;2.28;;;12.70;99.90;;;;;;5055125;28;20036;-52
2023/03/23 01:38:48;;;;;;;4.70;1.83;;;12.70;99.90;;;;;;5054988;28;20032;-47
2023/03/23 01:41:15;;;;;;;4.33;2.03;;;12.70;99.90;;;;;;5055159;28;20595;-51
2023/03/23 01:44:01;;;;;;;3.95;1.88;;;12.70;99.90;;;;;;5054740;28;20082;-49
2023/03/23 01:46:31;;;;;;;4.70;2.00;;;12.70;99.90;;;;;;5072367;28;20025;-49
2023/03/23 01:49:05;;;;;;;3.70;2.00;;;12.70;99.90;;;;;;5072744;28;20493;-48
2023/03/23 01:51:32;;;;;;;4.80;2.03;;;12.70;99.90;;;;;;5054560;28;20035;-46
2023/03/23 01:54:02;;;;;;;4.30;2.10;;;12.80;99.90;;;;;;5054508;28;20068;-48
2023/03/23 01:56:37;;;;;;;5.82;1.95;;;12.70;99.90;;;;;;5054632;28;20465;-47
2023/03/23 01:59:04;;;;;;;3.90;2.00;;;12.70;99.90;;;;;;5054692;28;20029;-48
2023/03/23 02:01:29;;;;;;;4.90;1.90;;;12.70;99.90;;;;;;5054609;28;20043;-51
2023/03/23 02:03:57;;;;;;;3.83;1.90;;;12.70;99.90;;;;;;5054602;28;20409;-48
2023/03/23 02:06:24;;;;;;;4.73;2.77;;;12.70;99.90;;;;;;5054567;28;20052;-49
2023/03/23 02:09:13;;;;;;;3.25;2.00;;;12.70;99.90;;;;;;5054480;28;20465;-51
2023/03/23 02:11:40;;;;;;;5.28;2.25;;;12.70;99.90;;;;;;5054264;28;20110;-51
2023/03/23 02:14:06;;;;;;;5.10;2.00;;;12.70;99.90;;;;;;5054262;28;20352;-46
2023/03/23 02:16:31;;;;;;;4.67;2.20;;;12.70;99.90;;;;;;5054256;28;20025;-49
2023/03/23 02:19:01;;;;;;;4.63;1.88;;;12.60;99.90;;;;;;5054267;28;20112;-52
2023/03/23 02:21:44;;;;;;;4.07;2.20;;;12.60;99.90;;;;;;5072133;28;20032;-49
2023/03/23 02:24:42;;;;;;;4.40;1.83;;;12.70;99.90;;;;;;5054084;28;20397;-49
2023/03/23 02:27:55;;;;;;;5.07;2.20;;;12.60;99.90;;;;;;5054024;28;20036;-46
2023/03/23 02:30:26;;;;;;;4.63;2.17;;;12.60;99.90;;;;;;5072078;28;20423;-47
2023/03/23 02:33:13;;;;;;;5.00;2.30;;;12.50;99.90;;;;;;5071835;28;20075;-47
2023/03/23 02:35:47;;;;;;;4.63;2.27;;;12.40;99.90;;;;;;5053749;28;20071;-49
2023/03/23 02:38:26;;;;;;;4.93;2.30;;;12.40;99.90;;;;;;5037385;28;20366;-49
2023/03/23 02:40:56;;;;;;;6.23;2.27;;;12.40;99.90;;;;;;5053890;28;20032;-48
2023/03/23 02:43:26;;;;;;;3.70;2.00;;;12.40;99.90;;;;;;5053491;28;20020;-49
2023/03/23 02:45:53;;;;;;;3.43;2.13;;;12.30;99.90;;;;;;5071763;28;20020;-47
2023/03/23 02:48:24;;;;;;;3.63;2.10;;;12.30;99.90;;;;;;5053611;28;20028;-50
2023/03/23 02:50:52;;;;;;;3.87;2.13;;;12.30;99.90;;;;;;5071596;28;20032;-49
2023/03/23 02:53:22;;;;;;;5.00;2.38;;;12.20;99.90;;;;;;5053336;28;20029;-51
2023/03/23 02:55:52;;;;;;;3.70;2.03;;;12.20;99.90;;;;;;5053614;28;20060;-49
2023/03/23 02:58:20;;;;;;;5.43;2.40;;;12.20;99.90;;;;;;5052724;28;20386;-47
2023/03/23 03:00:49;;;;;;;4.53;2.43;;;12.20;99.90;;;;;;5053449;28;20024;-53
2023/03/23 03:03:20;;;;;;;4.05;2.38;;;12.10;99.90;;;;;;5071434;28;20029;-48
2023/03/23 03:06:02;;;;;;;4.23;2.07;;;12.20;99.90;;;;;;5071379;28;20484;-46
2023/03/23 03:08:58;;;;;;;5.37;2.30;;;12.20;99.90;;;;;;5053190;28;20400;-47
2023/03/23 03:11:25;;;;;;;3.77;2.10;;;12.10;99.90;;;;;;5053157;28;20033;-49
2023/03/23 03:14:04;;;;;;;4.67;2.20;;;12.10;99.90;;;;;;5053082;28;20567;-51
2023/03/23 03:16:40;;;;;;;5.07;2.40;;;12.20;99.90;;;;;;5053119;28;20020;-48
2023/03/23 03:19:25;;;;;;;4.67;2.17;;;12.20;99.90;;;;;;5071082;28;20107;-48
2023/03/23 03:21:54;;;;;;;4.33;1.93;;;12.20;99.90;;;;;;5052941;28;20492;-47
2023/03/23 03:24:28;;;;;;;4.77;2.00;;;12.20;99.90;;;;;;5053019;28;20412;-52
2023/03/23 03:26:59;;;;;;;4.43;2.00;;;12.10;99.90;;;;;;5070882;28;20028;-47
2023/03/23 03:29:35;;;;;;;6.13;2.35;;;12.20;99.90;;;;;;5053162;28;20500;-47
2023/03/23 03:32:05;;;;;;;3.83;2.00;;;12.20;99.90;;;;;;5052794;28;20028;-47
2023/03/23 03:34:33;;;;;;;4.73;2.00;;;12.20;99.90;;;;;;5052983;28;20052;-50
2023/03/23 03:36:59;;;;;;;3.73;1.80;;;12.20;99.90;;;;;;5070749;28;20099;-49
2023/03/23 03:39:27;;;;;;;4.27;1.80;;;12.30;99.90;;;;;;5036467;28;20058;-50
2023/03/23 03:41:54;;;;;;;3.27;1.80;;;12.30;99.90;;;;;;5052737;28;20389;-47
2023/03/23 03:44:20;;;;;;;2.77;1.50;;;12.30;99.90;;;;;;5052868;28;20059;-52
2023/03/23 03:46:46;;;;;;;4.87;2.37;;;12.30;99.90;;;;;;5052524;28;20377;-48
2023/03/23 03:49:12;;;;;;;3.20;1.70;;;12.30;99.90;;;;;;5070665;28;20029;-47
2023/03/23 03:51:40;;;;;;;3.43;1.63;;;12.30;99.90;;;;;;5052472;28;20063;-47
2023/03/23 03:54:08;;;;;;;2.30;1.40;;;12.30;99.90;;;;;;5052534;28;20094;-48
2023/03/23 03:56:40;;;;;;;3.13;1.57;;;12.30;99.90;;;;;;5052593;28;20020;-47
2023/03/23 03:59:22;;;;;;;3.92;1.80;;;12.30;99.90;;;;;;5052569;28;20032;-48
2023/03/23 04:02:16;;;;;;;3.43;2.00;;;12.30;99.90;;;;;;5039096;28;20412;-49
2023/03/23 04:04:43;;;;;;;3.50;1.90;;;12.30;99.90;;;;;;5052458;28;20452;-47
2023/03/23 04:07:13;;;;;;;3.30;1.33;;;12.40;99.90;;;;;;5070296;28;20466;-47
2023/03/23 04:09:47;;;;;;;3.47;1.53;;;12.40;99.90;;;;;;5052328;28;20035;-46
2023/03/23 04:12:15;;;;;;;3.53;1.70;;;12.40;99.90;;;;;;5052235;28;20035;-50
2023/03/23 04:15:07;;;;;;;5.40;1.90;;;12.40;99.90;;;;;;5066967;28;20028;-46
2023/03/23 04:17:35;;;;;;;3.37;1.37;;;12.40;99.90;;;;;;5052282;28;20028;-47
2023/03/23 04:20:07;;;;;;;3.60;1.60;;;12.40;99.90;;;;;;5052249;28;20055;-48
2023/03/23 04:22:33;;;;;;;3.80;1.50;;;12.40;99.90;;;;;;5052310;28;20029;-46
2023/03/23 04:25:05;;;;;;;3.03;1.60;;;12.50;99.90;;;;;;5052096;28;20032;-48
2023/03/23 04:27:32;;;;;;;3.27;1.57;;;12.50;99.90;;;;;;5052135;28;20540;-49
2023/03/23 04:30:00;;;;;;;4.30;1.60;;;12.50;99.90;;;;;;5052298;28;20035;-48
2023/03/23 04:32:41;;;;;;;3.63;1.75;;;12.50;99.90;;;;;;5052065;28;20507;-47
2023/03/23 04:35:10;;;;;;;3.22;1.70;;;12.50;99.90;;;;;;5069991;28;20265;-48
2023/03/23 04:37:42;;;;;;;5.23;1.70;;;12.60;99.90;;;;;;5052037;28;20052;-50
2023/03/23 04:40:12;;;;;;;3.33;1.67;;;12.60;99.90;;;;;;5070165;28;20024;-48
2023/03/23 04:42:48;;;;;;;3.87;1.73;;;12.60;99.90;;;;;;5052121;28;20037;-50
2023/03/23 04:45:37;;;;;;;3.72;1.70;;;12.60;99.90;;;;;;5051928;28;20116;-51
2023/03/23 04:48:04;;;;;;;2.97;1.55;;;12.60;99.90;;;;;;5051799;28;20039;-48
2023/03/23 04:50:48;;;;;;;2.53;1.70;;;12.60;99.90;;;;;;5051919;28;20063;-49
2023/03/23 04:53:22;;;;;;;4.25;1.92;;;12.60;99.90;;;;;;5051591;28;20029;-47
2023/03/23 04:55:49;;;;;;;5.07;2.60;;;12.60;99.90;;;;;;5052088;28;20077;-47
2023/03/23 04:58:17;;;;;;;6.75;2.35;;;12.60;99.90;;;;;;5051788;28;20027;-49
2023/03/23 05:00:52;;;;;;;6.65;3.78;;;12.60;99.90;;;;;;5051978;28;20028;-47
2023/03/23 05:03:20;;;;;;;9.15;5.53;;;12.60;99.90;;;;;;5051670;28;20028;-50
2023/03/23 05:05:51;;;;;;;3.13;1.98;;;12.60;99.90;;;;;;5052114;28;20032;-48
2023/03/23 05:08:24;;;;;;;4.20;1.75;;;12.60;99.90;;;;;;5051701;28;20119;-50
2023/03/23 05:10:53;;;;;;;3.38;1.77;;;12.60;99.90;;;;;;5051892;28;20029;-49
2023/03/23 05:13:20;;;;;;;3.28;2.00;;;12.60;99.90;;;;;;5051533;28;20032;-47
2023/03/23 05:15:50;;;;;;;4.50;1.98;;;12.60;99.90;;;;;;5051883;28;20094;-46
2023/03/23 05:18:16;;;;;;;3.35;1.98;;;12.60;99.90;;;;;;5051463;28;20024;-47
2023/03/23 05:20:43;;;;;;;2.95;1.95;;;12.50;99.90;;;;;;5051964;28;20518;-47
2023/03/23 05:23:16;;;;;;;4.40;1.90;;;12.50;99.90;;;;;;5054621;28;20036;-48
2023/03/23 05:25:44;;;;;;;3.15;2.08;;;12.50;99.90;;;;;;5055340;28;20025;-49
2023/03/23 05:28:14;;;;;;;5.05;2.20;;;12.50;99.90;;;;;;5055150;28;20519;-46
2023/03/23 05:31:02;;;;;;;4.20;1.90;;;12.50;99.90;;;;;;5055035;28;20056;-46
2023/03/23 05:33:31;;;;;;;3.25;1.90;;;12.50;99.90;;;;;;5054920;28;20033;-47
2023/03/23 05:36:06;;;;;;;3.60;1.85;;;12.50;99.90;;;;;;5055237;28;20055;-46
2023/03/23 05:38:47;;;;;;;4.22;1.80;;;12.50;99.90;;;;;;5055226;28;20688;-48
2023/03/23 05:41:14;;;;;;;5.40;2.50;;;12.60;99.90;;;;;;5054982;28;20033;-47
2023/03/23 05:43:41;;;;;;;3.83;2.05;;;12.50;99.90;;;;;;5054737;28;20493;-47
2023/03/23 05:46:27;;;;;;;6.18;2.00;;;12.60;99.90;;;;;;5054684;28;20043;-49
2023/03/23 05:48:57;;;;;;;4.50;1.95;;;12.50;99.90;;;;;;5054926;28;20036;-46
2023/03/23 05:51:30;;;;;;;4.97;2.07;;;12.50;99.90;;;;;;5054626;28;20029;-47
2023/03/23 05:53:56;;;;;;;4.80;2.13;;;12.50;99.90;;;;;;5054577;28;20417;-46
2023/03/23 05:56:22;;;;;;;4.25;2.20;;;12.50;99.90;;;;;;5054547;28;20034;-47
2023/03/23 05:59:17;;;;;;;3.92;2.22;;;12.50;99.90;;;;;;5054815;28;20103;-47
2023/03/23 06:01:45;;;;;;;3.38;2.13;;;12.50;99.90;;;;;;5054608;28;20055;-50
2023/03/23 06:04:13;;;;;;;3.78;2.10;;;12.50;99.90;;;;;;5054229;28;20033;-45
2023/03/23 06:06:51;;;;;;;4.07;2.10;;;12.50;99.90;;;;;;5072552;28;20047;-49
2023/03/23 06:09:18;;;;;;;6.47;2.57;;;12.50;99.90;;;;;;5054358;28;20028;-45
2023/03/23 06:12:04;;;;;;;4.10;1.90;;;12.50;99.90;;;;;;5072589;28;20040;-46
2023/03/23 06:14:52;;;;;;;4.40;2.13;;;12.40;99.90;;;;;;5054157;28;20035;-50
2023/03/23 06:17:24;;;;;;;4.93;2.08;;;12.40;99.90;;;;;;5054152;28;20485;-47
2023/03/23 06:19:52;;;;;;;6.22;2.08;;;12.50;99.90;;;;;;5054393;28;20111;-48
2023/03/23 06:22:18;;;;;;;4.13;2.20;;;12.50;99.90;;;;;;5054147;28;20032;-47
2023/03/23 06:24:49;;;;;;;4.37;2.50;;;12.50;99.90;;;;;;5072105;28;20068;-46
2023/03/23 06:27:22;;;;;;;5.35;2.33;;;12.50;99.90;;;;;;5071958;28;20034;-48
2023/03/23 06:29:48;;;;;;;4.37;2.03;;;12.50;99.90;;;;;;5053999;28;20033;-47
2023/03/23 06:32:14;;;;;;;4.88;2.30;;;12.50;99.90;;;;;;5053952;28;20020;-47
2023/03/23 06:34:44;;;;;;;6.78;3.00;;;12.50;99.90;;;;;;5052843;28;20056;-47
2023/03/23 06:37:35;;;;;;;4.97;2.27;;;12.50;99.90;;;;;;5034127;28;20459;-50
2023/03/23 06:40:08;;;;;;;5.85;2.25;;;12.60;99.90;;;;;;5053902;28;20459;-47
2023/03/23 06:42:43;;;;;;;6.00;2.27;;;12.50;99.90;;;;;;5053816;28;20055;-48
2023/03/23 06:45:23;;;;;;;5.23;2.17;;;12.50;99.90;;;;;;5071605;28;20502;-47
2023/03/23 06:47:57;;;;;;;8.15;2.83;;;12.60;99.90;;;;;;5053539;28;20564;-47
2023/03/23 06:50:23;;;;;;;5.03;2.17;;;12.50;99.90;;;;;;5053673;28;20036;-49
2023/03/23 06:52:51;;;;;;;4.90;2.10;;;12.60;99.90;;;;;;5058456;22;20421;-51
2023/03/23 06:55:17;;;;;;;8.50;3.00;;;12.60;99.90;;;;;;5033156;28;20027;-52
2023/03/23 06:57:44;;;;;;;6.28;2.13;;;12.70;99.90;;;;;;5051434;28;20033;-52
2023/03/23 07:00:13;;;;;;;7.30;2.30;;;12.70;99.90;;;;;;5033608;28;20284;-52
2023/03/23 07:02:44;;;;;;;4.97;1.85;;;12.80;99.90;;;;;;5033362;28;20029;-52
2023/03/23 07:05:11;;;;;;;5.78;2.10;;;12.70;99.90;;;;;;5033285;28;20035;-53
2023/03/23 07:07:40;;;;;;;4.05;2.00;;;12.70;99.90;;;;;;5033422;28;20589;-53
2023/03/23 07:10:19;;;;;;;6.60;2.53;;;12.80;99.90;;;;;;5033353;28;20124;-51
2023/03/23 07:12:45;;;;;;;7.00;2.05;;;12.80;99.90;;;;;;5033198;28;20119;-53
2023/03/23 07:15:12;;;;;;;5.72;2.22;;;12.80;99.90;;;;;;5032976;28;20397;-51
2023/03/23 07:17:40;;;;;;;7.50;2.10;;;12.80;99.90;;;;;;5033509;28;20025;-51
2023/03/23 07:20:18;;;;;;;6.07;1.90;;;12.70;99.90;;;;;;5032885;28;20056;-52
2023/03/23 07:22:44;;;;;;;6.85;1.80;;;12.70;99.90;;;;;;5032773;28;20044;-52
2023/03/23 07:25:21;;;;;;;5.47;1.88;;;12.80;99.90;;;;;;5032821;28;20086;-50
2023/03/23 07:27:51;;;;;;;6.15;1.83;;;12.70;99.90;;;;;;5032918;28;20037;-49
2023/03/23 07:30:17;;;;;;;6.22;2.05;;;12.80;99.90;;;;;;5032919;28;20033;-53
2023/03/23 07:32:42;;;;;;;6.60;2.03;;;12.80;99.90;;;;;;5032648;28;20083;-50
2023/03/23 07:35:09;;;;;;;8.15;2.30;;;12.80;99.90;;;;;;5050359;28;20144;-49
2023/03/23 07:37:58;;;;;;;5.45;1.70;;;12.90;99.90;;;;;;5032653;28;20029;-53
2023/03/23 07:40:24;;;;;;;4.78;1.65;;;12.90;99.90;;;;;;5032828;28;20025;-51
2023/03/23 07:42:57;;;;;;;3.80;1.67;;;12.90;99.90;;;;;;5032670;28;20115;-50
2023/03/23 07:45:40;;;;;;;6.78;1.80;;;12.90;99.90;;;;;;5032283;28;20056;-50
2023/03/23 07:48:06;;;;;;;4.70;1.80;;;12.90;99.90;;;;;;5032633;28;20029;-50
2023/03/23 07:50:32;;;;;;;4.63;1.65;;;12.80;99.90;;;;;;5032599;28;20035;-52
2023/03/23 07:52:59;;;;;;;5.32;1.98;;;12.90;99.90;;;;;;5032501;28;20025;-52
2023/03/23 07:55:28;;;;;;;5.13;1.70;;;12.90;99.90;;;;;;5032389;28;20481;-51
2023/03/23 07:58:03;;;;;;;6.38;1.77;;;12.90;99.90;;;;;;5032505;28;20021;-52
2023/03/23 08:00:29;;;;;;;4.95;1.88;;;12.80;99.90;;;;;;5032535;28;20025;-51
2023/03/23 08:02:57;;;;;;;4.40;1.80;;;12.80;99.90;;;;;;5032518;28;20053;-50
2023/03/23 08:05:45;;;;;;;;;;;12.90;99.90;;;;;;5033175;28;20090;-50
2023/03/23 08:08:10;;;;;;;5.05;1.60;;;12.80;99.90;;;;;;5050201;28;20332;-50
2023/03/23 08:10:54;;;;;;;5.00;1.80;;;12.90;99.90;;;;;;5050759;28;20089;-50
2023/03/23 08:13:43;;;;;;;5.20;1.90;;;13.00;99.90;;;;;;5032316;28;20037;-53
2023/03/23 08:16:32;;;;;;;5.55;1.50;;;13.10;99.90;;;;;;5021411;28;20033;-50
2023/03/23 08:19:16;;;;;;;5.25;1.75;;;13.10;99.90;;;;;;5050568;28;20123;-53
2023/03/23 08:22:00;;;;;;;4.72;1.88;;;13.10;99.90;;;;;;5050325;28;20503;-52
2023/03/23 08:24:49;;;;;;;7.80;1.60;;;13.20;99.90;;;;;;5041752;28;20040;-51
2023/03/23 08:27:25;;;;;;;5.88;1.85;;;13.30;99.90;;;;;;5032319;28;20076;-51
2023/03/23 08:30:16;;;;;;;4.35;1.70;;;13.30;99.90;;;;;;5041873;28;20115;-52
2023/03/23 08:33:00;;;;;;;5.78;1.50;;;13.40;99.90;;;;;;5032377;28;20362;-53
2023/03/23 08:35:43;;;;;;;8.02;1.70;;;13.40;99.90;;;;;;5032181;28;20497;-52
2023/03/23 08:38:24;;;;;;;5.15;1.75;;;13.40;99.90;;;;;;5049893;28;20389;-53
2023/03/23 08:41:09;;;;;;;8.45;2.83;;;13.50;99.90;;;;;;5032171;28;20497;-52
2023/03/23 08:43:48;;;;;;;10.98;6.10;;;13.60;99.90;;;;;;5032162;28;20489;-50
2023/03/23 08:46:37;;;;;;;12.43;5.53;;;13.70;99.90;;;;;;5031963;28;20056;-49
2023/03/23 08:49:17;;;;;;;11.98;6.47;;;13.70;99.90;;;;;;5032174;28;20029;-52
2023/03/23 08:51:52;;;;;;;6.38;1.88;;;13.80;99.90;;;;;;5032023;28;20029;-54
2023/03/23 08:54:40;;;;;;;6.10;1.80;;;13.80;99.90;;;;;;5048179;28;20051;-51
2023/03/23 08:57:31;;;;;;;5.25;1.55;;;13.80;99.90;;;;;;5051603;28;20045;-51
2023/03/23 09:00:19;;;;;;;5.25;1.50;;;13.70;99.90;;;;;;5053450;28;20052;-51
2023/03/23 09:03:02;;;;;;;6.97;2.15;;;13.70;99.90;;;;;;5035748;28;20043;-49
2023/03/23 09:05:45;;;;;;;6.18;1.50;;;13.60;99.90;;;;;;5036044;28;20063;-50
2023/03/23 09:08:31;;;;;;;4.63;1.60;;;13.60;99.90;;;;;;5053548;28;20188;-48
2023/03/23 09:11:05;;;;;;;6.72;1.60;;;13.50;99.90;;;;;;5053661;28;20031;-51
2023/03/23 09:13:30;;;;;;;8.48;1.90;;;13.50;99.90;;;;;;5053253;28;20412;-49
2023/03/23 09:15:57;;;;;;;6.05;1.80;;;13.40;99.90;;;;;;5053476;28;20021;-53
2023/03/23 09:18:23;;;;;;;7.40;1.80;;;13.50;99.90;;;;;;5053383;28;20025;-51
2023/03/23 09:20:53;;;;;;;6.70;1.63;;;13.50;99.90;;;;;;5053512;28;20470;-53
2023/03/23 09:23:20;;;;;;;7.40;1.70;;;13.50;99.90;;;;;;5053365;28;20138;-51
2023/03/23 09:25:46;;;;;;;8.18;1.80;;;13.40;99.90;;;;;;5053378;28;20509;-49
2023/03/23 09:28:13;;;;;;;5.20;1.52;;;13.40;99.90;;;;;;5053491;28;20044;-51
2023/03/23 09:30:40;;;;;;;16.45;8.68;;;13.50;99.90;;;;;;5052998;28;20088;-54
2023/03/23 09:33:07;;;;;;;25.73;12.55;;;13.40;99.90;;;;;;5053053;28;20539;-52
2023/03/23 09:35:35;;;;;;;9.43;3.25;;;13.40;99.90;;;;;;5053287;28;20096;-54
2023/03/23 09:38:03;;;;;;;8.90;1.55;;;13.30;99.90;;;;;;5035281;28;20032;-49
2023/03/23 09:40:53;;;;;;;6.03;1.40;;;13.40;99.90;;;;;;5053049;28;20120;-51
2023/03/23 09:43:35;;;;;;;10.50;1.90;;;13.30;99.90;;;;;;5052722;28;20108;-50
2023/03/23 09:46:26;;;;;;;5.85;1.38;;;13.10;99.90;;;;;;5053071;28;20033;-51
2023/03/23 09:48:55;;;;;;;9.13;1.30;;;12.80;99.90;;;;;;5053095;28;20089;-51
2023/03/23 09:51:40;;;;;;;6.45;1.20;;;12.20;99.90;;;;;;5052976;28;20409;-49
2023/03/23 09:54:11;;;;;;;4.03;1.43;;;11.90;99.90;;;;;;5034857;28;20037;-52
2023/03/23 09:56:36;;;;;;;5.27;1.27;;;11.60;99.90;;;;;;5052881;28;20031;-49
2023/03/23 09:59:19;;;;;;;5.80;1.23;;;11.50;99.90;;;;;;5053109;28;20104;-51
2023/03/23 10:01:49;;;;;;;3.60;1.27;;;11.40;99.90;;;;;;5052800;28;20041;-50
2023/03/23 10:04:37;;;;;;;9.23;1.70;;;11.40;99.90;;;;;;5052924;28;20389;-49
2023/03/23 10:07:16;;;;;;;4.63;1.10;;;11.50;99.90;;;;;;5052850;28;20032;-51
2023/03/23 10:09:45;;;;;;;4.25;1.00;;;11.40;99.90;;;;;;5052836;28;20036;-53
2023/03/23 10:12:35;;;;;;;5.22;1.55;;;11.30;99.90;;;;;;5053026;28;20060;-54
2023/03/23 10:15:26;;;;;;;6.50;1.60;;;11.30;99.90;;;;;;5052514;28;20037;-51
2023/03/23 10:17:52;;;;;;;4.50;1.50;;;11.20;99.90;;;;;;5052503;28;20040;-50
2023/03/23 10:20:44;;;;;;;4.40;1.83;;;11.20;99.90;;;;;;5052585;28;20025;-53
2023/03/23 10:23:19;;;;;;;5.43;1.70;;;11.10;99.90;;;;;;5052489;28;20021;-49
2023/03/23 10:26:21;;;;;;;7.13;1.50;;;11.10;99.90;;;;;;5052312;28;20099;-52
2023/03/23 10:28:54;;;;;;;7.20;2.57;;;11.00;99.90;;;;;;5052146;28;20033;-55
2023/03/23 10:31:27;;;;;;;6.00;2.67;;;11.00;99.90;;;;;;5052157;28;20078;-54
2023/03/23 10:33:57;;;;;;;7.63;2.50;;;11.00;99.90;;;;;;5051997;28;20043;-53
2023/03/23 10:36:31;;;;;;;5.23;1.87;;;11.00;99.90;;;;;;5051832;28;20028;-49
2023/03/23 10:39:09;;;;;;;4.77;1.60;;;10.90;99.90;;;;;;5051996;28;20374;-53
2023/03/23 10:41:35;;;;;;;4.53;1.13;;;10.80;99.90;;;;;;5051858;28;20396;-52
2023/03/23 10:44:07;;;;;;;7.20;1.43;;;10.80;99.90;;;;;;5051326;28;20036;-51
2023/03/23 10:46:48;;;;;;;4.93;1.20;;;10.80;99.90;;;;;;5051544;28;20036;-52
2023/03/23 10:49:19;;;;;;;5.57;1.60;;;10.80;99.90;;;;;;5051687;28;20496;-51
2023/03/23 10:51:52;;;;;;;6.10;1.90;;;10.80;99.90;;;;;;5051515;28;20036;-50
2023/03/23 10:54:27;;;;;;;7.63;2.20;;;10.80;99.90;;;;;;5051637;28;20025;-51
2023/03/23 10:56:53;;;;;;;8.23;2.30;;;10.70;99.90;;;;;;5051497;28;20393;-54
2023/03/23 10:59:26;;;;;;;7.50;2.50;;;10.60;99.90;;;;;;5051575;28;20029;-51
2023/03/23 11:01:55;;;;;;;12.43;3.20;;;10.60;99.90;;;;;;5051527;28;20043;-51
2023/03/23 11:04:22;;;;;;;7.70;2.70;;;10.50;99.90;;;;;;5051296;28;20489;-53
2023/03/23 11:06:52;;;;;;;11.93;2.90;;;10.50;99.90;;;;;;5051337;28;20044;-51
2023/03/23 11:09:20;;;;;;;6.93;2.38;;;10.50;99.90;;;;;;5051750;28;20108;-52
2023/03/23 11:11:51;;;;;;;9.90;3.20;;;10.40;99.90;;;;;;5051090;28;20045;-48
2023/03/23 11:14:34;;;;;;;5.57;1.90;;;10.40;99.90;;;;;;5051104;28;20539;-50
2023/03/23 11:17:06;;;;;;;4.90;1.60;;;10.40;99.90;;;;;;5051149;28;20094;-52
2023/03/23 11:19:35;;;;;;;6.90;2.07;;;10.50;99.90;;;;;;5050626;28;20462;-51
2023/03/23 11:22:06;;;;;;;5.27;1.70;;;10.40;99.90;;;;;;5051223;28;20041;-54
2023/03/23 11:24:37;;;;;;;6.57;1.77;;;10.40;99.90;;;;;;5051014;28;20110;-50
2023/03/23 11:27:06;;;;;;;6.37;2.17;;;10.40;99.90;;;;;;5050870;28;20029;-52
2023/03/23 11:29:34;;;;;;;4.67;1.43;;;10.40;99.90;;;;;;5051128;28;20036;-53
2023/03/23 11:31:59;;;;;;;4.80;1.10;;;10.40;99.90;;;;;;5051127;28;20127;-53
2023/03/23 11:34:35;;;;;;;5.73;1.20;;;10.40;99.90;;;;;;5051088;28;20104;-53
2023/03/23 11:37:15;;;;;;;4.83;1.50;;;10.40;99.90;;;;;;5050870;28;20030;-51
2023/03/23 11:39:57;;;;;;;9.30;1.70;;;10.50;99.90;;;;;;5050837;28;20029;-53
2023/03/23 11:42:33;;;;;;;4.67;1.50;;;10.50;99.90;;;;;;5051049;28;20029;-52
2023/03/23 11:45:22;;;;;;;5.43;1.60;;;10.60;99.90;;;;;;5050828;28;20493;-52
2023/03/23 11:48:00;;;;;;;7.75;2.33;;;10.70;99.90;;;;;;5050817;28;20033;-48
2023/03/23 11:50:37;;;;;;;4.05;2.05;;;10.70;99.90;;;;;;5051065;28;20093;-51
2023/03/23 11:53:15;;;;;;;7.60;2.57;;;10.70;99.90;;;;;;5050720;28;20469;-50
2023/03/23 11:55:44;;;;;;;8.73;4.15;;;10.70;99.90;;;;;;5050814;28;20056;-50
2023/03/23 11:58:15;;;;;;;8.45;3.80;;;10.90;99.90;;;;;;5051323;28;20054;-51
2023/03/23 12:00:57;;;;;;;7.13;3.50;;;11.00;99.90;;;;;;5050796;28;20048;-53
2023/03/23 12:03:46;;;;;;;7.87;3.07;;;11.00;99.90;;;;;;5050808;28;20483;-53
2023/03/23 12:06:18;;;;;;;8.57;3.40;;;11.00;99.90;;;;;;5050993;28;20098;-49
2023/03/23 12:09:06;;;;;;;5.27;2.30;;;11.00;99.90;;;;;;5050750;28;20020;-53
2023/03/23 12:11:50;;;;;;;5.07;2.37;;;11.00;99.90;;;;;;5050750;28;20497;-50
2023/03/23 12:14:20;;;;;;;8.27;3.27;;;11.00;99.90;;;;;;5050550;28;20033;-50
2023/03/23 12:16:56;;;;;;;7.83;2.93;;;11.10;99.90;;;;;;5050536;28;20037;-49
2023/03/23 12:19:34;;;;;;;6.43;2.70;;;11.20;99.90;;;;;;5050637;28;20492;-51
2023/03/23 12:22:34;;;;;;;5.43;2.57;;;11.30;99.90;;;;;;5050558;28;20037;-53
2023/03/23 12:25:23;;;;;;;4.97;2.23;;;11.30;99.90;;;;;;5050331;28;20547;-54
2023/03/23 12:28:30;;;;;;;4.20;1.85;;;11.30;99.90;;;;;;5050308;28;20505;-52
2023/03/23 12:31:01;;;;;;;7.73;2.40;;;11.40;99.90;;;;;;5051160;28;20037;-52
2023/03/23 12:33:59;;;;;;;6.93;2.37;;;11.50;99.90;;;;;;5054329;28;20056;-52
2023/03/23 12:37:08;;;;;;;6.30;2.23;;;11.50;99.90;;;;;;5037151;28;20489;-48
2023/03/23 12:40:01;;;;;;;4.93;1.90;;;11.60;99.90;;;;;;5054362;28;20382;-52
2023/03/23 12:42:50;;;;;;;4.93;2.10;;;11.70;99.90;;;;;;5054083;28;20108;-49
2023/03/23 12:46:03;;;;;;;4.63;2.05;;;11.80;99.90;;;;;;5054121;28;20033;-48
2023/03/23 12:48:45;;;;;;;5.80;2.57;;;12.00;99.90;;;;;;5053873;28;20037;-47
2023/03/23 12:51:10;;;;;;;4.03;2.03;;;12.10;99.90;;;;;;5054005;28;20116;-51
2023/03/23 12:53:55;;;;;;;3.77;2.03;;;12.00;99.90;;;;;;5056086;22;20049;-52
2023/03/23 12:56:32;;;;;;;5.50;2.20;;;12.10;99.90;;;;;;5033905;28;20044;-50
2023/03/23 12:59:07;;;;;;;5.20;2.30;;;12.20;99.90;;;;;;5033903;28;20053;-51
2023/03/23 13:01:42;;;;;;;4.65;2.30;;;12.40;99.90;;;;;;5034219;28;20047;-54
2023/03/23 13:04:17;;;;;;;5.97;2.55;;;12.50;99.90;;;;;;5033757;28;20029;-53
2023/03/23 13:06:48;;;;;;;5.43;2.83;;;12.50;99.90;;;;;;5033826;28;20030;-52
2023/03/23 13:09:36;;;;;;;6.88;2.78;;;12.40;99.90;;;;;;5034236;28;20022;-54
2023/03/23 13:12:04;;;;;;;7.17;3.27;;;12.50;99.90;;;;;;5033899;28;20068;-50
2023/03/23 13:14:35;;;;;;;7.93;2.85;;;12.80;99.90;;;;;;5033490;28;20022;-50
2023/03/23 13:17:32;;;;;;;8.15;3.00;;;13.20;99.90;;;;;;5033544;28;20057;-53
2023/03/23 13:19:57;;;;;;;7.30;2.78;;;13.70;99.90;;;;;;5034005;28;20018;-50
2023/03/23 13:23:02;;;;;;;7.93;2.17;;;13.80;99.90;;;;;;5033561;28;20490;-52
2023/03/23 13:25:39;;;;;;;5.95;2.35;;;13.90;99.90;;;;;;4992841;28;20042;-48